sensor_id;sensor_type;location;lat;lon;timestamp;P1;durP1;ratioP1;P2;durP2;ratioP2
84682;SDS011;74905;44.124;18.116;2024-01-30T00:02:15;286.05;;;94.13;;
84682;SDS011;74905;44.124;18.116;2024-01-30T00:04:41;264.67;;;89.80;;
84682;SDS011;74905;44.124;18.116;2024-01-30T00:07:07;262.58;;;85.10;;
84682;SDS011;74905;44.124;18.116;2024-01-30T00:09:33;258.92;;;87.40;;
84682;SDS011;74905;44.124;18.116;2024-01-30T00:11:58;258.35;;;83.90;;
84682;SDS011;74905;44.124;18.116;2024-01-30T00:14:24;259.70;;;88.00;;
84682;SDS011;74905;44.124;18.116;2024-01-30T00:16:50;277.25;;;92.00;;
84682;SDS011;74905;44.124;18.116;2024-01-30T00:19:16;254.77;;;86.72;;
84682;SDS011;74905;44.124;18.116;2024-01-30T00:21:42;263.55;;;85.05;;
84682;SDS011;74905;44.124;18.116;2024-01-30T00:24:07;264.45;;;85.45;;
84682;SDS011;74905;44.124;18.116;2024-01-30T00:26:33;243.02;;;84.35;;
84682;SDS011;74905;44.124;18.116;2024-01-30T00:28:59;240.80;;;83.80;;
84682;SDS011;74905;44.124;18.116;2024-01-30T00:31:25;236.50;;;80.82;;
84682;SDS011;74905;44.124;18.116;2024-01-30T00:33:51;221.38;;;76.13;;
84682;SDS011;74905;44.124;18.116;2024-01-30T00:36:16;232.77;;;78.60;;
84682;SDS011;74905;44.124;18.116;2024-01-30T00:38:42;219.60;;;78.43;;
84682;SDS011;74905;44.124;18.116;2024-01-30T00:41:08;226.68;;;75.38;;
84682;SDS011;74905;44.124;18.116;2024-01-30T00:43:34;223.75;;;76.35;;
84682;SDS011;74905;44.124;18.116;2024-01-30T00:46:00;232.95;;;77.88;;
84682;SDS011;74905;44.124;18.116;2024-01-30T00:48:26;237.27;;;76.95;;
84682;SDS011;74905;44.124;18.116;2024-01-30T00:50:52;212.57;;;74.40;;
84682;SDS011;74905;44.124;18.116;2024-01-30T00:53:17;235.07;;;76.88;;
84682;SDS011;74905;44.124;18.116;2024-01-30T00:55:43;204.50;;;76.25;;
84682;SDS011;74905;44.124;18.116;2024-01-30T00:58:09;214.43;;;74.03;;
84682;SDS011;74905;44.124;18.116;2024-01-30T01:00:34;212.85;;;74.43;;
84682;SDS011;74905;44.124;18.116;2024-01-30T01:03:00;228.10;;;78.18;;
84682;SDS011;74905;44.124;18.116;2024-01-30T01:05:26;221.40;;;75.60;;
84682;SDS011;74905;44.124;18.116;2024-01-30T01:07:52;220.05;;;76.97;;
84682;SDS011;74905;44.124;18.116;2024-01-30T01:10:18;227.93;;;78.45;;
84682;SDS011;74905;44.124;18.116;2024-01-30T01:12:44;227.38;;;76.30;;
84682;SDS011;74905;44.124;18.116;2024-01-30T01:15:10;223.43;;;78.40;;
84682;SDS011;74905;44.124;18.116;2024-01-30T01:17:36;214.77;;;73.00;;
84682;SDS011;74905;44.124;18.116;2024-01-30T01:20:02;208.13;;;69.40;;
84682;SDS011;74905;44.124;18.116;2024-01-30T01:22:30;209.98;;;70.50;;
84682;SDS011;74905;44.124;18.116;2024-01-30T01:24:56;215.02;;;69.90;;
84682;SDS011;74905;44.124;18.116;2024-01-30T01:27:22;198.55;;;70.82;;
84682;SDS011;74905;44.124;18.116;2024-01-30T01:29:47;233.25;;;76.88;;
84682;SDS011;74905;44.124;18.116;2024-01-30T01:32:13;209.55;;;72.75;;
84682;SDS011;74905;44.124;18.116;2024-01-30T01:34:38;237.98;;;76.30;;
84682;SDS011;74905;44.124;18.116;2024-01-30T01:37:04;220.95;;;75.20;;
84682;SDS011;74905;44.124;18.116;2024-01-30T01:39:30;208.55;;;74.28;;
84682;SDS011;74905;44.124;18.116;2024-01-30T01:41:55;218.02;;;73.50;;
84682;SDS011;74905;44.124;18.116;2024-01-30T01:44:21;202.98;;;70.70;;
84682;SDS011;74905;44.124;18.116;2024-01-30T01:46:46;212.20;;;70.25;;
84682;SDS011;74905;44.124;18.116;2024-01-30T01:49:13;221.73;;;74.88;;
84682;SDS011;74905;44.124;18.116;2024-01-30T01:51:39;205.88;;;71.00;;
84682;SDS011;74905;44.124;18.116;2024-01-30T01:54:07;204.00;;;70.15;;
84682;SDS011;74905;44.124;18.116;2024-01-30T01:56:34;217.88;;;68.80;;
84682;SDS011;74905;44.124;18.116;2024-01-30T01:59:01;213.18;;;70.45;;
84682;SDS011;74905;44.124;18.116;2024-01-30T02:01:31;202.75;;;68.72;;
84682;SDS011;74905;44.124;18.116;2024-01-30T02:03:58;199.00;;;66.25;;
84682;SDS011;74905;44.124;18.116;2024-01-30T02:06:24;190.75;;;65.55;;
84682;SDS011;74905;44.124;18.116;2024-01-30T02:08:51;192.80;;;62.80;;
84682;SDS011;74905;44.124;18.116;2024-01-30T02:11:16;189.35;;;61.63;;
84682;SDS011;74905;44.124;18.116;2024-01-30T02:13:43;179.70;;;62.80;;
84682;SDS011;74905;44.124;18.116;2024-01-30T02:16:08;190.40;;;63.38;;
84682;SDS011;74905;44.124;18.116;2024-01-30T02:18:34;183.63;;;62.95;;
84682;SDS011;74905;44.124;18.116;2024-01-30T02:21:04;196.30;;;62.30;;
84682;SDS011;74905;44.124;18.116;2024-01-30T02:23:29;181.18;;;58.78;;
84682;SDS011;74905;44.124;18.116;2024-01-30T02:25:56;173.57;;;53.58;;
84682;SDS011;74905;44.124;18.116;2024-01-30T02:28:21;169.50;;;56.20;;
84682;SDS011;74905;44.124;18.116;2024-01-30T02:30:47;166.10;;;54.97;;
84682;SDS011;74905;44.124;18.116;2024-01-30T02:33:13;186.23;;;58.40;;
84682;SDS011;74905;44.124;18.116;2024-01-30T02:35:38;178.23;;;55.85;;
84682;SDS011;74905;44.124;18.116;2024-01-30T02:38:04;160.98;;;54.28;;
84682;SDS011;74905;44.124;18.116;2024-01-30T02:40:30;174.40;;;55.72;;
84682;SDS011;74905;44.124;18.116;2024-01-30T02:42:57;185.57;;;58.03;;
84682;SDS011;74905;44.124;18.116;2024-01-30T02:45:24;181.85;;;60.30;;
84682;SDS011;74905;44.124;18.116;2024-01-30T02:47:49;192.30;;;60.42;;
84682;SDS011;74905;44.124;18.116;2024-01-30T02:50:15;175.88;;;61.20;;
84682;SDS011;74905;44.124;18.116;2024-01-30T02:52:41;176.02;;;61.00;;
84682;SDS011;74905;44.124;18.116;2024-01-30T02:55:09;193.48;;;62.80;;
84682;SDS011;74905;44.124;18.116;2024-01-30T02:57:35;190.68;;;64.38;;
84682;SDS011;74905;44.124;18.116;2024-01-30T03:00:00;182.05;;;58.13;;
84682;SDS011;74905;44.124;18.116;2024-01-30T03:02:26;180.07;;;60.60;;
84682;SDS011;74905;44.124;18.116;2024-01-30T03:04:52;160.32;;;56.85;;
84682;SDS011;74905;44.124;18.116;2024-01-30T03:07:17;164.10;;;53.33;;
84682;SDS011;74905;44.124;18.116;2024-01-30T03:09:43;166.32;;;54.97;;
84682;SDS011;74905;44.124;18.116;2024-01-30T03:12:09;166.10;;;57.05;;
84682;SDS011;74905;44.124;18.116;2024-01-30T03:14:35;192.18;;;59.33;;
84682;SDS011;74905;44.124;18.116;2024-01-30T03:17:00;185.68;;;57.72;;
84682;SDS011;74905;44.124;18.116;2024-01-30T03:19:26;170.48;;;56.50;;
84682;SDS011;74905;44.124;18.116;2024-01-30T03:21:52;160.30;;;54.17;;
84682;SDS011;74905;44.124;18.116;2024-01-30T03:24:18;165.77;;;55.15;;
84682;SDS011;74905;44.124;18.116;2024-01-30T03:26:43;162.63;;;53.40;;
84682;SDS011;74905;44.124;18.116;2024-01-30T03:29:09;166.13;;;53.63;;
84682;SDS011;74905;44.124;18.116;2024-01-30T03:31:35;186.40;;;56.20;;
84682;SDS011;74905;44.124;18.116;2024-01-30T03:34:00;165.65;;;52.90;;
84682;SDS011;74905;44.124;18.116;2024-01-30T03:36:27;185.35;;;55.38;;
84682;SDS011;74905;44.124;18.116;2024-01-30T03:38:52;188.98;;;56.08;;
84682;SDS011;74905;44.124;18.116;2024-01-30T03:41:18;177.77;;;53.45;;
84682;SDS011;74905;44.124;18.116;2024-01-30T03:43:44;178.77;;;53.97;;
84682;SDS011;74905;44.124;18.116;2024-01-30T03:46:11;214.20;;;53.08;;
84682;SDS011;74905;44.124;18.116;2024-01-30T03:48:37;171.63;;;55.70;;
84682;SDS011;74905;44.124;18.116;2024-01-30T03:51:04;178.70;;;54.10;;
84682;SDS011;74905;44.124;18.116;2024-01-30T03:56:01;184.18;;;55.08;;
84682;SDS011;74905;44.124;18.116;2024-01-30T03:58:28;199.40;;;55.20;;
84682;SDS011;74905;44.124;18.116;2024-01-30T04:00:53;177.25;;;54.67;;
84682;SDS011;74905;44.124;18.116;2024-01-30T04:03:19;163.80;;;52.72;;
84682;SDS011;74905;44.124;18.116;2024-01-30T04:05:45;173.07;;;54.17;;
84682;SDS011;74905;44.124;18.116;2024-01-30T04:08:10;196.02;;;57.97;;
84682;SDS011;74905;44.124;18.116;2024-01-30T04:10:36;199.65;;;56.13;;
84682;SDS011;74905;44.124;18.116;2024-01-30T04:13:01;179.15;;;55.33;;
84682;SDS011;74905;44.124;18.116;2024-01-30T04:15:27;184.82;;;55.42;;
84682;SDS011;74905;44.124;18.116;2024-01-30T04:17:57;156.50;;;49.95;;
84682;SDS011;74905;44.124;18.116;2024-01-30T04:20:24;166.95;;;47.75;;
84682;SDS011;74905;44.124;18.116;2024-01-30T04:22:50;154.48;;;47.88;;
84682;SDS011;74905;44.124;18.116;2024-01-30T04:25:16;146.75;;;48.95;;
84682;SDS011;74905;44.124;18.116;2024-01-30T04:27:42;141.50;;;45.15;;
84682;SDS011;74905;44.124;18.116;2024-01-30T04:30:08;140.50;;;48.25;;
84682;SDS011;74905;44.124;18.116;2024-01-30T04:32:34;130.07;;;44.78;;
84682;SDS011;74905;44.124;18.116;2024-01-30T04:35:00;139.20;;;48.33;;
84682;SDS011;74905;44.124;18.116;2024-01-30T04:37:26;169.80;;;55.03;;
84682;SDS011;74905;44.124;18.116;2024-01-30T04:39:51;170.73;;;54.20;;
84682;SDS011;74905;44.124;18.116;2024-01-30T04:42:17;140.35;;;52.78;;
84682;SDS011;74905;44.124;18.116;2024-01-30T04:44:42;140.85;;;50.75;;
84682;SDS011;74905;44.124;18.116;2024-01-30T04:47:08;142.30;;;50.05;;
84682;SDS011;74905;44.124;18.116;2024-01-30T04:49:36;129.15;;;50.15;;
84682;SDS011;74905;44.124;18.116;2024-01-30T04:52:02;145.00;;;51.13;;
84682;SDS011;74905;44.124;18.116;2024-01-30T04:54:27;156.82;;;51.67;;
84682;SDS011;74905;44.124;18.116;2024-01-30T04:56:53;156.45;;;51.63;;
84682;SDS011;74905;44.124;18.116;2024-01-30T04:59:18;152.50;;;49.88;;
84682;SDS011;74905;44.124;18.116;2024-01-30T05:01:44;128.65;;;46.60;;
84682;SDS011;74905;44.124;18.116;2024-01-30T05:04:10;144.73;;;46.08;;
84682;SDS011;74905;44.124;18.116;2024-01-30T05:06:36;135.75;;;47.00;;
84682;SDS011;74905;44.124;18.116;2024-01-30T05:09:02;125.75;;;45.88;;
84682;SDS011;74905;44.124;18.116;2024-01-30T05:11:29;118.07;;;41.75;;
84682;SDS011;74905;44.124;18.116;2024-01-30T05:13:55;130.68;;;42.78;;
84682;SDS011;74905;44.124;18.116;2024-01-30T05:16:21;126.65;;;45.72;;
84682;SDS011;74905;44.124;18.116;2024-01-30T05:18:46;119.45;;;44.55;;
84682;SDS011;74905;44.124;18.116;2024-01-30T05:21:12;117.15;;;41.50;;
84682;SDS011;74905;44.124;18.116;2024-01-30T05:23:38;117.43;;;42.17;;
84682;SDS011;74905;44.124;18.116;2024-01-30T05:26:03;112.90;;;40.35;;
84682;SDS011;74905;44.124;18.116;2024-01-30T05:28:29;109.47;;;38.65;;
84682;SDS011;74905;44.124;18.116;2024-01-30T05:30:55;112.30;;;42.25;;
84682;SDS011;74905;44.124;18.116;2024-01-30T05:33:21;115.13;;;39.90;;
84682;SDS011;74905;44.124;18.116;2024-01-30T05:35:47;111.43;;;38.88;;
84682;SDS011;74905;44.124;18.116;2024-01-30T05:38:14;111.72;;;42.03;;
84682;SDS011;74905;44.124;18.116;2024-01-30T05:40:41;115.28;;;42.63;;
84682;SDS011;74905;44.124;18.116;2024-01-30T05:43:07;125.13;;;45.22;;
84682;SDS011;74905;44.124;18.116;2024-01-30T05:45:33;157.40;;;48.83;;
84682;SDS011;74905;44.124;18.116;2024-01-30T05:48:00;167.40;;;53.63;;
84682;SDS011;74905;44.124;18.116;2024-01-30T05:50:26;154.95;;;49.00;;
84682;SDS011;74905;44.124;18.116;2024-01-30T05:52:52;166.20;;;51.25;;
84682;SDS011;74905;44.124;18.116;2024-01-30T05:55:18;162.80;;;51.80;;
84682;SDS011;74905;44.124;18.116;2024-01-30T05:57:44;178.40;;;53.90;;
84682;SDS011;74905;44.124;18.116;2024-01-30T06:00:10;167.00;;;54.00;;
84682;SDS011;74905;44.124;18.116;2024-01-30T06:02:36;177.20;;;51.55;;
84682;SDS011;74905;44.124;18.116;2024-01-30T06:05:02;176.00;;;52.17;;
84682;SDS011;74905;44.124;18.116;2024-01-30T06:07:28;159.50;;;47.75;;
84682;SDS011;74905;44.124;18.116;2024-01-30T06:09:53;148.45;;;48.33;;
84682;SDS011;74905;44.124;18.116;2024-01-30T06:12:19;177.98;;;50.95;;
84682;SDS011;74905;44.124;18.116;2024-01-30T06:14:45;163.38;;;47.45;;
84682;SDS011;74905;44.124;18.116;2024-01-30T06:17:11;149.68;;;48.58;;
84682;SDS011;74905;44.124;18.116;2024-01-30T06:19:37;160.02;;;50.17;;
84682;SDS011;74905;44.124;18.116;2024-01-30T06:22:06;182.82;;;52.45;;
84682;SDS011;74905;44.124;18.116;2024-01-30T06:24:32;181.07;;;55.38;;
84682;SDS011;74905;44.124;18.116;2024-01-30T06:26:59;148.25;;;47.50;;
84682;SDS011;74905;44.124;18.116;2024-01-30T06:29:25;157.52;;;47.67;;
84682;SDS011;74905;44.124;18.116;2024-01-30T06:31:52;161.18;;;50.58;;
84682;SDS011;74905;44.124;18.116;2024-01-30T06:34:18;147.70;;;47.45;;
84682;SDS011;74905;44.124;18.116;2024-01-30T06:36:43;141.00;;;46.05;;
84682;SDS011;74905;44.124;18.116;2024-01-30T06:39:09;126.18;;;43.38;;
84682;SDS011;74905;44.124;18.116;2024-01-30T06:41:35;154.23;;;44.88;;
84682;SDS011;74905;44.124;18.116;2024-01-30T06:44:03;141.07;;;43.42;;
84682;SDS011;74905;44.124;18.116;2024-01-30T06:46:31;117.47;;;42.45;;
84682;SDS011;74905;44.124;18.116;2024-01-30T06:48:57;128.82;;;40.92;;
84682;SDS011;74905;44.124;18.116;2024-01-30T06:51:23;117.63;;;40.88;;
84682;SDS011;74905;44.124;18.116;2024-01-30T06:53:49;113.63;;;39.92;;
84682;SDS011;74905;44.124;18.116;2024-01-30T06:56:14;114.78;;;40.17;;
84682;SDS011;74905;44.124;18.116;2024-01-30T06:58:40;123.15;;;44.25;;
84682;SDS011;74905;44.124;18.116;2024-01-30T07:01:06;127.70;;;44.58;;
84682;SDS011;74905;44.124;18.116;2024-01-30T07:03:32;122.35;;;42.95;;
84682;SDS011;74905;44.124;18.116;2024-01-30T07:05:57;165.85;;;49.22;;
84682;SDS011;74905;44.124;18.116;2024-01-30T07:08:23;156.38;;;52.45;;
84682;SDS011;74905;44.124;18.116;2024-01-30T07:10:49;161.45;;;53.47;;
84682;SDS011;74905;44.124;18.116;2024-01-30T07:13:15;164.80;;;52.35;;
84682;SDS011;74905;44.124;18.116;2024-01-30T07:15:42;146.18;;;50.00;;
84682;SDS011;74905;44.124;18.116;2024-01-30T07:18:08;151.52;;;49.55;;
84682;SDS011;74905;44.124;18.116;2024-01-30T07:23:07;143.75;;;46.75;;
84682;SDS011;74905;44.124;18.116;2024-01-30T07:25:33;147.75;;;50.53;;
84682;SDS011;74905;44.124;18.116;2024-01-30T07:28:01;151.75;;;46.42;;
84682;SDS011;74905;44.124;18.116;2024-01-30T07:30:31;159.63;;;50.25;;
84682;SDS011;74905;44.124;18.116;2024-01-30T07:32:56;165.93;;;50.72;;
84682;SDS011;74905;44.124;18.116;2024-01-30T07:35:22;141.15;;;48.85;;
84682;SDS011;74905;44.124;18.116;2024-01-30T07:37:48;166.80;;;47.20;;
84682;SDS011;74905;44.124;18.116;2024-01-30T07:40:13;155.07;;;47.08;;
84682;SDS011;74905;44.124;18.116;2024-01-30T07:42:39;168.57;;;49.95;;
84682;SDS011;74905;44.124;18.116;2024-01-30T07:45:05;157.75;;;50.00;;
84682;SDS011;74905;44.124;18.116;2024-01-30T07:47:31;161.32;;;52.63;;
84682;SDS011;74905;44.124;18.116;2024-01-30T07:49:56;198.88;;;52.22;;
84682;SDS011;74905;44.124;18.116;2024-01-30T07:52:22;170.63;;;54.22;;
84682;SDS011;74905;44.124;18.116;2024-01-30T07:54:48;182.25;;;58.72;;
84682;SDS011;74905;44.124;18.116;2024-01-30T07:57:14;212.88;;;58.88;;
84682;SDS011;74905;44.124;18.116;2024-01-30T07:59:41;190.60;;;56.97;;
84682;SDS011;74905;44.124;18.116;2024-01-30T08:02:09;191.20;;;54.92;;
84682;SDS011;74905;44.124;18.116;2024-01-30T08:04:35;206.20;;;58.70;;
84682;SDS011;74905;44.124;18.116;2024-01-30T08:07:01;182.07;;;56.92;;
84682;SDS011;74905;44.124;18.116;2024-01-30T08:09:26;179.50;;;56.13;;
84682;SDS011;74905;44.124;18.116;2024-01-30T08:11:52;196.80;;;58.67;;
84682;SDS011;74905;44.124;18.116;2024-01-30T08:14:18;228.23;;;64.28;;
84682;SDS011;74905;44.124;18.116;2024-01-30T08:16:44;204.90;;;63.55;;
84682;SDS011;74905;44.124;18.116;2024-01-30T08:19:09;223.57;;;67.03;;
84682;SDS011;74905;44.124;18.116;2024-01-30T08:21:35;233.38;;;67.43;;
84682;SDS011;74905;44.124;18.116;2024-01-30T08:24:04;219.02;;;66.07;;
84682;SDS011;74905;44.124;18.116;2024-01-30T08:26:31;215.95;;;66.28;;
84682;SDS011;74905;44.124;18.116;2024-01-30T08:28:57;200.93;;;62.75;;
84682;SDS011;74905;44.124;18.116;2024-01-30T08:31:23;211.57;;;63.47;;
84682;SDS011;74905;44.124;18.116;2024-01-30T08:33:49;192.88;;;64.18;;
84682;SDS011;74905;44.124;18.116;2024-01-30T08:36:15;179.57;;;58.47;;
84682;SDS011;74905;44.124;18.116;2024-01-30T08:38:41;216.20;;;68.47;;
84682;SDS011;74905;44.124;18.116;2024-01-30T08:41:07;201.15;;;66.78;;
84682;SDS011;74905;44.124;18.116;2024-01-30T08:43:33;189.52;;;61.65;;
84682;SDS011;74905;44.124;18.116;2024-01-30T08:45:59;200.32;;;63.00;;
84682;SDS011;74905;44.124;18.116;2024-01-30T08:48:25;201.50;;;64.55;;
84682;SDS011;74905;44.124;18.116;2024-01-30T08:50:51;200.88;;;66.38;;
84682;SDS011;74905;44.124;18.116;2024-01-30T08:53:17;201.90;;;62.95;;
84682;SDS011;74905;44.124;18.116;2024-01-30T08:55:43;195.10;;;63.80;;
84682;SDS011;74905;44.124;18.116;2024-01-30T08:58:09;223.05;;;71.05;;
84682;SDS011;74905;44.124;18.116;2024-01-30T09:00:35;202.10;;;65.18;;
84682;SDS011;74905;44.124;18.116;2024-01-30T09:03:01;233.82;;;74.30;;
84682;SDS011;74905;44.124;18.116;2024-01-30T09:05:27;258.40;;;79.75;;
84682;SDS011;74905;44.124;18.116;2024-01-30T09:07:52;216.98;;;69.68;;
84682;SDS011;74905;44.124;18.116;2024-01-30T09:10:18;305.25;;;92.80;;
84682;SDS011;74905;44.124;18.116;2024-01-30T09:12:44;294.88;;;88.72;;
84682;SDS011;74905;44.124;18.116;2024-01-30T09:15:10;295.73;;;90.70;;
84682;SDS011;74905;44.124;18.116;2024-01-30T09:17:36;263.48;;;83.55;;
84682;SDS011;74905;44.124;18.116;2024-01-30T09:20:01;245.65;;;75.80;;
84682;SDS011;74905;44.124;18.116;2024-01-30T09:22:27;254.00;;;79.22;;
84682;SDS011;74905;44.124;18.116;2024-01-30T09:27:22;260.27;;;81.18;;
84682;SDS011;74905;44.124;18.116;2024-01-30T09:29:48;248.25;;;77.80;;
84682;SDS011;74905;44.124;18.116;2024-01-30T09:32:13;241.13;;;80.03;;
84682;SDS011;74905;44.124;18.116;2024-01-30T09:34:39;253.13;;;80.15;;
84682;SDS011;74905;44.124;18.116;2024-01-30T09:37:05;252.20;;;80.18;;
84682;SDS011;74905;44.124;18.116;2024-01-30T09:39:30;255.15;;;79.90;;
84682;SDS011;74905;44.124;18.116;2024-01-30T09:44:43;238.77;;;81.18;;
84682;SDS011;74905;44.124;18.116;2024-01-30T09:47:09;225.40;;;78.80;;
84682;SDS011;74905;44.124;18.116;2024-01-30T09:49:35;258.33;;;85.25;;
84682;SDS011;74905;44.124;18.116;2024-01-30T09:52:05;218.73;;;74.78;;
84682;SDS011;74905;44.124;18.116;2024-01-30T09:54:32;217.13;;;74.40;;
84682;SDS011;74905;44.124;18.116;2024-01-30T09:56:58;222.88;;;78.82;;
84682;SDS011;74905;44.124;18.116;2024-01-30T09:59:27;222.80;;;83.32;;
84682;SDS011;74905;44.124;18.116;2024-01-30T10:01:54;197.95;;;76.35;;
84682;SDS011;74905;44.124;18.116;2024-01-30T10:04:20;197.20;;;78.75;;
84682;SDS011;74905;44.124;18.116;2024-01-30T10:06:47;223.60;;;84.95;;
84682;SDS011;74905;44.124;18.116;2024-01-30T10:09:13;226.43;;;87.97;;
84682;SDS011;74905;44.124;18.116;2024-01-30T10:11:39;214.80;;;87.43;;
84682;SDS011;74905;44.124;18.116;2024-01-30T10:14:04;231.63;;;92.43;;
84682;SDS011;74905;44.124;18.116;2024-01-30T10:16:30;242.57;;;96.43;;
84682;SDS011;74905;44.124;18.116;2024-01-30T10:18:56;242.93;;;93.15;;
84682;SDS011;74905;44.124;18.116;2024-01-30T10:21:23;245.48;;;94.07;;
84682;SDS011;74905;44.124;18.116;2024-01-30T10:23:49;249.40;;;95.13;;
84682;SDS011;74905;44.124;18.116;2024-01-30T10:26:16;235.20;;;91.68;;
84682;SDS011;74905;44.124;18.116;2024-01-30T10:28:45;245.50;;;95.75;;
84682;SDS011;74905;44.124;18.116;2024-01-30T10:31:10;205.30;;;81.93;;
84682;SDS011;74905;44.124;18.116;2024-01-30T10:33:44;211.07;;;86.47;;
84682;SDS011;74905;44.124;18.116;2024-01-30T10:36:11;180.55;;;73.07;;
84682;SDS011;74905;44.124;18.116;2024-01-30T10:38:41;180.57;;;69.40;;
84682;SDS011;74905;44.124;18.116;2024-01-30T10:41:08;190.68;;;74.22;;
84682;SDS011;74905;44.124;18.116;2024-01-30T10:43:40;156.35;;;61.97;;
84682;SDS011;74905;44.124;18.116;2024-01-30T10:46:15;143.77;;;60.35;;
84682;SDS011;74905;44.124;18.116;2024-01-30T10:48:45;149.57;;;61.10;;
84682;SDS011;74905;44.124;18.116;2024-01-30T10:51:20;160.77;;;67.32;;
84682;SDS011;74905;44.124;18.116;2024-01-30T10:53:47;175.00;;;72.13;;
84682;SDS011;74905;44.124;18.116;2024-01-30T10:56:17;163.82;;;69.50;;
84682;SDS011;74905;44.124;18.116;2024-01-30T10:58:48;149.90;;;67.22;;
84682;SDS011;74905;44.124;18.116;2024-01-30T11:01:15;151.43;;;66.82;;
84682;SDS011;74905;44.124;18.116;2024-01-30T11:03:42;150.63;;;68.05;;
84682;SDS011;74905;44.124;18.116;2024-01-30T11:06:10;152.73;;;69.35;;
84682;SDS011;74905;44.124;18.116;2024-01-30T11:08:39;151.18;;;71.78;;
84682;SDS011;74905;44.124;18.116;2024-01-30T11:11:08;149.68;;;72.32;;
84682;SDS011;74905;44.124;18.116;2024-01-30T11:13:35;138.63;;;66.72;;
84682;SDS011;74905;44.124;18.116;2024-01-30T11:16:04;144.88;;;68.90;;
84682;SDS011;74905;44.124;18.116;2024-01-30T11:18:30;140.07;;;69.65;;
84682;SDS011;74905;44.124;18.116;2024-01-30T11:21:00;158.52;;;78.57;;
84682;SDS011;74905;44.124;18.116;2024-01-30T11:23:30;152.68;;;76.38;;
84682;SDS011;74905;44.124;18.116;2024-01-30T11:25:58;148.70;;;76.63;;
84682;SDS011;74905;44.124;18.116;2024-01-30T11:28:24;166.32;;;82.18;;
84682;SDS011;74905;44.124;18.116;2024-01-30T11:31:02;168.02;;;80.97;;
84682;SDS011;74905;44.124;18.116;2024-01-30T11:33:35;149.50;;;77.80;;
84682;SDS011;74905;44.124;18.116;2024-01-30T11:36:01;154.85;;;79.18;;
84682;SDS011;74905;44.124;18.116;2024-01-30T11:38:27;171.27;;;87.45;;
84682;SDS011;74905;44.124;18.116;2024-01-30T11:40:56;166.60;;;85.07;;
84682;SDS011;74905;44.124;18.116;2024-01-30T11:43:22;143.55;;;77.40;;
84682;SDS011;74905;44.124;18.116;2024-01-30T11:45:48;160.00;;;81.75;;
84682;SDS011;74905;44.124;18.116;2024-01-30T11:48:14;137.32;;;73.07;;
84682;SDS011;74905;44.124;18.116;2024-01-30T11:50:40;135.85;;;69.93;;
84682;SDS011;74905;44.124;18.116;2024-01-30T11:53:07;139.90;;;69.28;;
84682;SDS011;74905;44.124;18.116;2024-01-30T11:55:33;123.70;;;63.90;;
84682;SDS011;74905;44.124;18.116;2024-01-30T11:58:02;126.70;;;65.60;;
84682;SDS011;74905;44.124;18.116;2024-01-30T12:00:29;119.53;;;60.72;;
84682;SDS011;74905;44.124;18.116;2024-01-30T12:02:56;105.93;;;56.85;;
84682;SDS011;74905;44.124;18.116;2024-01-30T12:05:22;99.68;;;50.38;;
84682;SDS011;74905;44.124;18.116;2024-01-30T12:07:49;86.30;;;46.00;;
84682;SDS011;74905;44.124;18.116;2024-01-30T12:10:14;91.22;;;45.70;;
84682;SDS011;74905;44.124;18.116;2024-01-30T12:12:41;70.32;;;39.30;;
84682;SDS011;74905;44.124;18.116;2024-01-30T12:15:08;73.32;;;37.88;;
84682;SDS011;74905;44.124;18.116;2024-01-30T12:17:34;56.97;;;31.63;;
84682;SDS011;74905;44.124;18.116;2024-01-30T12:22:30;63.42;;;34.25;;
84682;SDS011;74905;44.124;18.116;2024-01-30T12:24:56;48.97;;;29.35;;
84682;SDS011;74905;44.124;18.116;2024-01-30T12:27:22;40.13;;;22.15;;
84682;SDS011;74905;44.124;18.116;2024-01-30T12:29:48;42.70;;;23.85;;
84682;SDS011;74905;44.124;18.116;2024-01-30T12:32:22;44.67;;;23.00;;
84682;SDS011;74905;44.124;18.116;2024-01-30T12:34:48;43.35;;;24.27;;
84682;SDS011;74905;44.124;18.116;2024-01-30T12:37:14;40.85;;;23.73;;
84682;SDS011;74905;44.124;18.116;2024-01-30T12:39:42;36.92;;;20.98;;
84682;SDS011;74905;44.124;18.116;2024-01-30T12:42:08;41.55;;;22.58;;
84682;SDS011;74905;44.124;18.116;2024-01-30T12:44:34;50.88;;;26.45;;
84682;SDS011;74905;44.124;18.116;2024-01-30T12:49:28;49.97;;;27.50;;
84682;SDS011;74905;44.124;18.116;2024-01-30T12:51:54;48.72;;;26.50;;
84682;SDS011;74905;44.124;18.116;2024-01-30T12:54:20;50.25;;;25.88;;
84682;SDS011;74905;44.124;18.116;2024-01-30T12:56:45;36.95;;;20.60;;
84682;SDS011;74905;44.124;18.116;2024-01-30T12:59:11;39.45;;;23.38;;
84682;SDS011;74905;44.124;18.116;2024-01-30T13:01:37;40.03;;;22.58;;
84682;SDS011;74905;44.124;18.116;2024-01-30T13:04:02;41.97;;;22.45;;
84682;SDS011;74905;44.124;18.116;2024-01-30T13:06:28;38.08;;;21.08;;
84682;SDS011;74905;44.124;18.116;2024-01-30T13:08:54;38.95;;;21.48;;
84682;SDS011;74905;44.124;18.116;2024-01-30T13:11:19;38.78;;;20.48;;
84682;SDS011;74905;44.124;18.116;2024-01-30T13:13:45;37.28;;;20.40;;
84682;SDS011;74905;44.124;18.116;2024-01-30T13:16:11;36.80;;;20.48;;
84682;SDS011;74905;44.124;18.116;2024-01-30T13:18:37;36.83;;;21.13;;
84682;SDS011;74905;44.124;18.116;2024-01-30T13:21:02;40.13;;;21.45;;
84682;SDS011;74905;44.124;18.116;2024-01-30T13:23:28;36.15;;;19.90;;
84682;SDS011;74905;44.124;18.116;2024-01-30T13:25:54;39.90;;;21.80;;
84682;SDS011;74905;44.124;18.116;2024-01-30T13:28:23;37.75;;;21.33;;
84682;SDS011;74905;44.124;18.116;2024-01-30T13:30:49;33.75;;;19.50;;
84682;SDS011;74905;44.124;18.116;2024-01-30T13:33:14;36.60;;;21.63;;
84682;SDS011;74905;44.124;18.116;2024-01-30T13:35:40;39.08;;;21.38;;
84682;SDS011;74905;44.124;18.116;2024-01-30T13:38:05;49.53;;;27.08;;
84682;SDS011;74905;44.124;18.116;2024-01-30T13:40:31;54.90;;;30.73;;
84682;SDS011;74905;44.124;18.116;2024-01-30T13:43:00;50.08;;;29.02;;
84682;SDS011;74905;44.124;18.116;2024-01-30T13:45:25;48.97;;;28.75;;
84682;SDS011;74905;44.124;18.116;2024-01-30T13:47:51;60.28;;;35.97;;
84682;SDS011;74905;44.124;18.116;2024-01-30T13:50:17;60.63;;;34.03;;
84682;SDS011;74905;44.124;18.116;2024-01-30T13:52:43;69.80;;;38.78;;
84682;SDS011;74905;44.124;18.116;2024-01-30T13:55:09;62.88;;;33.75;;
84682;SDS011;74905;44.124;18.116;2024-01-30T13:57:35;51.80;;;28.60;;
84682;SDS011;74905;44.124;18.116;2024-01-30T14:00:03;58.03;;;32.58;;
84682;SDS011;74905;44.124;18.116;2024-01-30T14:02:38;51.22;;;30.52;;
84682;SDS011;74905;44.124;18.116;2024-01-30T14:05:07;50.38;;;30.02;;
84682;SDS011;74905;44.124;18.116;2024-01-30T14:07:35;61.97;;;33.38;;
84682;SDS011;74905;44.124;18.116;2024-01-30T14:10:17;62.63;;;33.67;;